createdAt,value
2022-09-11T00:00:15.218Z,4.13
2022-09-11T00:03:26.140Z,3.83
2022-09-11T00:06:31.900Z,3.85
2022-09-11T00:09:40.031Z,3.78
2022-09-11T00:12:45.494Z,3.85
2022-09-11T00:15:56.101Z,3.50
2022-09-11T00:19:06.847Z,3.35
2022-09-11T00:22:14.420Z,3.33
2022-09-11T00:25:19.996Z,3.42
2022-09-11T00:28:28.652Z,3.75
2022-09-11T00:31:38.126Z,3.38
2022-09-11T00:34:46.054Z,3.97
2022-09-11T00:37:51.887Z,3.63
2022-09-11T00:41:01.146Z,3.42
2022-09-11T00:44:08.992Z,3.60
2022-09-11T00:50:29.975Z,3.57
2022-09-11T00:53:39.937Z,3.28
2022-09-11T00:56:46.499Z,3.38
2022-09-11T00:59:58.745Z,3.60
2022-09-11T01:03:07.162Z,3.80
2022-09-11T01:06:15.470Z,3.45
2022-09-11T01:09:21.136Z,3.45
2022-09-11T01:12:36.683Z,3.35
2022-09-11T01:15:47.619Z,3.30
2022-09-11T01:19:04.522Z,3.08
2022-09-11T01:22:42.058Z,3.00
2022-09-11T01:26:17.220Z,2.80
2022-09-11T01:29:29.838Z,2.90
2022-09-11T01:32:46.678Z,3.03
2022-09-11T01:35:59.455Z,3.40
2022-09-11T01:39:08.636Z,2.85
2022-09-11T01:42:19.406Z,2.78
2022-09-11T01:45:31.993Z,3.40
2022-09-11T01:48:44.066Z,2.90
2022-09-11T01:51:56.835Z,3.28
2022-09-11T01:55:06.824Z,2.97
2022-09-11T01:58:17.818Z,2.80
2022-09-11T02:01:32.317Z,2.90
2022-09-11T02:04:44.624Z,2.95
2022-09-11T02:07:53.511Z,3.15
2022-09-11T02:11:07.679Z,2.75
2022-09-11T02:14:21.488Z,2.95
2022-09-11T02:17:44.162Z,2.97
2022-09-11T02:20:49.583Z,2.95
2022-09-11T02:23:58.030Z,2.88
2022-09-11T02:27:07.050Z,2.90
2022-09-11T02:30:15.670Z,2.65
2022-09-11T02:33:41.205Z,2.83
2022-09-11T02:37:08.340Z,2.53
2022-09-11T02:40:46.613Z,2.65
2022-09-11T02:44:02.013Z,2.75
2022-09-11T02:47:20.243Z,2.72
2022-09-11T02:50:36.941Z,2.63
2022-09-11T02:53:49.637Z,2.72
2022-09-11T02:57:04.367Z,2.85
2022-09-11T03:00:12.363Z,2.65
2022-09-11T03:03:20.914Z,2.67
2022-09-11T03:06:30.638Z,2.53
2022-09-11T03:09:38.677Z,2.97
2022-09-11T03:12:44.821Z,2.60
2022-09-11T03:15:52.622Z,2.78
2022-09-11T03:18:58.059Z,2.70
2022-09-11T03:22:08.332Z,2.80
2022-09-11T03:25:15.334Z,2.72
2022-09-11T03:28:23.024Z,2.80
2022-09-11T03:31:28.595Z,2.40
2022-09-11T03:34:36.081Z,2.40
2022-09-11T03:37:44.578Z,2.70
2022-09-11T03:40:52.296Z,2.72
2022-09-11T03:43:57.567Z,2.50
2022-09-11T03:47:05.914Z,2.42
2022-09-11T03:50:12.535Z,2.40
2022-09-11T03:53:22.613Z,2.63
2022-09-11T03:56:27.981Z,2.60
2022-09-11T03:59:35.665Z,2.80
2022-09-11T04:02:42.401Z,2.70
2022-09-11T04:06:00.402Z,3.00
2022-09-11T04:09:09.283Z,2.80
2022-09-11T04:12:16.765Z,2.88
2022-09-11T04:15:22.212Z,2.80
2022-09-11T04:18:29.922Z,2.75
2022-09-11T04:21:35.662Z,2.55
2022-09-11T04:24:45.727Z,2.42
2022-09-11T04:27:51.001Z,2.60
2022-09-11T04:30:59.893Z,2.40
2022-09-11T04:34:05.386Z,2.60
2022-09-11T04:37:12.921Z,2.75
2022-09-11T04:40:21.937Z,2.47
2022-09-11T04:43:29.221Z,2.75
2022-09-11T04:46:34.877Z,2.70
2022-09-11T04:49:42.515Z,2.60
2022-09-11T04:52:48.540Z,3.00
2022-09-11T04:56:04.883Z,2.85
2022-09-11T04:59:13.977Z,2.47
2022-09-11T05:02:22.198Z,2.90
2022-09-11T05:05:27.726Z,3.05
2022-09-11T05:08:37.085Z,2.97
2022-09-11T05:11:45.701Z,3.30
2022-09-11T05:14:53.489Z,3.08
2022-09-11T05:17:58.986Z,3.50
2022-09-11T05:21:08.489Z,3.42
2022-09-11T05:24:13.922Z,3.25
2022-09-11T05:27:23.976Z,3.75
2022-09-11T05:30:29.548Z,3.88
2022-09-11T05:33:37.050Z,3.50
2022-09-11T05:36:43.015Z,3.58
2022-09-11T05:39:50.480Z,3.70
2022-09-11T05:42:59.020Z,3.50
2022-09-11T05:46:06.909Z,4.18
2022-09-11T05:49:12.855Z,3.83
2022-09-11T05:52:20.349Z,3.70
2022-09-11T05:55:25.793Z,3.67
2022-09-11T05:58:37.444Z,3.90
2022-09-11T06:01:43.322Z,3.97
2022-09-11T06:04:50.936Z,4.28
2022-09-11T06:07:56.925Z,3.75
2022-09-11T06:11:07.168Z,3.83
2022-09-11T06:14:15.538Z,3.67
2022-09-11T06:17:23.399Z,4.20
2022-09-11T06:20:28.888Z,3.70
2022-09-11T06:23:36.868Z,3.63
2022-09-11T06:26:46.674Z,3.90
2022-09-11T06:29:57.265Z,3.85
2022-09-11T06:33:02.755Z,3.83
2022-09-11T06:36:13.126Z,3.90
2022-09-11T06:39:20.506Z,4.28
2022-09-11T06:42:28.353Z,4.47
2022-09-11T06:45:36.630Z,4.00
2022-09-11T06:48:44.822Z,4.22
2022-09-11T06:51:50.481Z,3.88
2022-09-11T06:54:57.867Z,3.65
2022-09-11T06:58:03.177Z,3.78
2022-09-11T07:01:15.579Z,3.92
2022-09-11T07:04:21.493Z,3.50
2022-09-11T07:07:28.993Z,3.78
2022-09-11T07:10:36.107Z,3.90
2022-09-11T07:13:44.655Z,3.43
2022-09-11T07:16:56.125Z,3.63
2022-09-11T07:20:03.697Z,3.70
2022-09-11T07:23:09.417Z,3.50
2022-09-11T07:26:46.359Z,3.88
2022-09-11T07:29:54.715Z,3.17
2022-09-11T07:33:05.344Z,3.45
2022-09-11T07:36:12.582Z,3.42
2022-09-11T07:39:20.197Z,3.30
2022-09-11T07:42:25.650Z,3.22
2022-09-11T07:45:33.099Z,3.55
2022-09-11T07:48:43.480Z,3.25
2022-09-11T07:51:55.763Z,3.20
2022-09-11T07:55:01.610Z,3.22
2022-09-11T07:58:09.286Z,3.28
2022-09-11T08:01:19.984Z,3.20
2022-09-11T08:04:30.847Z,3.10
2022-09-11T08:07:36.834Z,3.30
2022-09-11T08:10:44.456Z,2.90
2022-09-11T08:13:52.796Z,2.90
2022-09-11T08:17:00.143Z,2.78
2022-09-11T08:20:09.857Z,3.00
2022-09-11T08:23:18.485Z,3.05
2022-09-11T08:26:25.589Z,3.10
2022-09-11T08:29:34.182Z,2.53
2022-09-11T08:33:07.864Z,2.97
2022-09-11T08:40:45.193Z,2.97
2022-09-11T08:47:46.456Z,3.20
2022-09-11T08:50:54.390Z,3.85
2022-09-11T08:54:04.926Z,4.35
2022-09-11T08:57:19.887Z,4.97
2022-09-11T09:00:26.615Z,5.95
2022-09-11T09:03:58.274Z,5.80
2022-09-11T09:07:10.755Z,5.00
2022-09-11T09:10:36.868Z,4.80
2022-09-11T09:14:06.372Z,4.65
2022-09-11T09:17:19.696Z,5.05
2022-09-11T09:20:30.437Z,4.53
2022-09-11T09:23:43.717Z,4.53
2022-09-11T09:26:55.316Z,4.40
2022-09-11T09:30:08.065Z,4.22
2022-09-11T09:33:27.759Z,4.43
2022-09-11T09:36:39.942Z,4.47
2022-09-11T09:39:45.402Z,4.53
2022-09-11T09:43:24.890Z,4.47
2022-09-11T09:46:36.247Z,4.00
2022-09-11T09:49:44.679Z,4.20
2022-09-11T09:52:52.123Z,4.05
2022-09-11T09:56:02.224Z,4.00
2022-09-11T09:59:22.236Z,3.97
2022-09-11T10:02:42.517Z,3.90
2022-09-11T10:05:48.774Z,3.90
2022-09-11T10:09:03.293Z,3.70
2022-09-11T10:12:16.827Z,3.65
2022-09-11T10:15:30.276Z,3.80
2022-09-11T10:18:45.449Z,3.70
2022-09-11T10:21:54.230Z,3.67
2022-09-11T10:25:15.440Z,3.65
2022-09-11T10:28:31.511Z,3.30
2022-09-11T10:31:46.320Z,3.20
2022-09-11T10:34:54.940Z,3.83
2022-09-11T10:38:19.849Z,3.42
2022-09-11T10:41:30.536Z,3.50
2022-09-11T10:44:37.344Z,3.30
2022-09-11T10:47:48.853Z,3.08
2022-09-11T10:51:12.503Z,3.03
2022-09-11T10:54:31.604Z,3.60
2022-09-11T10:57:42.971Z,3.58
2022-09-11T11:00:52.355Z,3.78
2022-09-11T11:04:02.112Z,3.08
2022-09-11T11:07:20.136Z,2.97
2022-09-11T11:10:39.529Z,3.00
2022-09-11T11:14:07.650Z,2.85
2022-09-11T11:17:21.104Z,3.30
2022-09-11T11:20:40.721Z,2.92
2022-09-11T11:23:57.890Z,3.00
2022-09-11T11:27:25.436Z,2.90
2022-09-11T11:30:36.766Z,2.90
2022-09-11T11:34:17.815Z,3.00
2022-09-11T11:37:32.095Z,2.95
2022-09-11T11:40:46.531Z,3.15
2022-09-11T11:43:55.792Z,3.28
2022-09-11T11:47:07.619Z,3.10
2022-09-11T11:50:21.893Z,2.92
2022-09-11T11:53:38.420Z,2.65
2022-09-11T11:56:50.597Z,2.92
2022-09-11T12:00:02.321Z,2.65
2022-09-11T12:03:17.171Z,3.08
2022-09-11T12:06:25.257Z,2.80
2022-09-11T12:09:36.315Z,2.72
2022-09-11T12:12:50.976Z,2.88
2022-09-11T12:16:18.020Z,2.78
2022-09-11T12:19:27.468Z,2.83
2022-09-11T12:22:40.395Z,2.83
2022-09-11T12:26:08.513Z,3.03
2022-09-11T12:29:54.045Z,2.80
2022-09-11T12:33:03.766Z,2.67
2022-09-11T12:36:10.319Z,2.90
2022-09-11T12:39:26.825Z,2.80
2022-09-11T12:43:01.212Z,3.05
2022-09-11T12:46:13.072Z,2.70
2022-09-11T12:49:23.270Z,2.72
2022-09-11T12:52:49.909Z,2.72
2022-09-11T12:56:00.499Z,2.75
2022-09-11T12:59:12.541Z,2.50
2022-09-11T13:02:29.307Z,2.90
2022-09-11T13:05:40.070Z,2.65
2022-09-11T13:08:52.624Z,2.80
2022-09-11T13:12:20.913Z,2.67
2022-09-11T13:15:44.126Z,2.70
2022-09-11T13:18:51.519Z,2.70
2022-09-11T13:21:57.710Z,3.00
2022-09-11T13:25:14.543Z,2.83
2022-09-11T13:28:24.341Z,2.70
2022-09-11T13:31:41.757Z,3.05
2022-09-11T13:34:49.445Z,2.58
2022-09-11T13:38:02.827Z,2.50
2022-09-11T13:41:10.678Z,2.65
2022-09-11T13:47:44.183Z,2.53
2022-09-11T13:50:52.651Z,2.60
2022-09-11T13:54:07.905Z,2.22
2022-09-11T13:57:22.075Z,2.55
2022-09-11T14:00:46.365Z,2.45
2022-09-11T14:03:57.318Z,2.60
2022-09-11T14:07:03.613Z,2.57
2022-09-11T14:10:20.826Z,2.50
2022-09-11T14:13:31.021Z,2.42
2022-09-11T14:16:42.388Z,2.58
2022-09-11T14:19:51.903Z,2.40
2022-09-11T14:23:02.716Z,2.28
2022-09-11T14:26:12.821Z,2.60
2022-09-11T14:29:28.725Z,2.40
2022-09-11T14:32:37.219Z,2.20
2022-09-11T14:35:50.623Z,2.20
2022-09-11T14:38:56.220Z,2.33
2022-09-11T14:42:06.188Z,2.45
2022-09-11T14:45:12.342Z,2.25
2022-09-11T14:48:20.025Z,2.33
2022-09-11T14:51:28.908Z,2.35
2022-09-11T14:54:36.490Z,2.20
2022-09-11T14:57:42.626Z,2.55
2022-09-11T15:00:50.811Z,2.00
2022-09-11T15:03:57.054Z,2.38
2022-09-11T15:07:07.409Z,2.40
2022-09-11T15:10:14.176Z,2.45
2022-09-11T15:13:22.034Z,2.67
2022-09-11T15:16:27.498Z,2.45
2022-09-11T15:19:35.447Z,2.40
2022-09-11T15:22:44.889Z,2.42
2022-09-11T15:26:02.126Z,2.17
2022-09-11T15:29:10.370Z,2.20
2022-09-11T15:32:17.914Z,2.30
2022-09-11T15:35:23.805Z,2.45
2022-09-11T15:38:34.658Z,2.10
2022-09-11T15:41:42.899Z,2.17
2022-09-11T15:44:50.571Z,2.20
2022-09-11T15:47:59.838Z,2.40
2022-09-11T15:51:13.163Z,2.40
2022-09-11T15:54:23.579Z,2.40
2022-09-11T15:57:33.158Z,2.33
2022-09-11T16:00:39.473Z,2.10
2022-09-11T16:03:48.486Z,2.22
2022-09-11T16:06:55.403Z,2.25
2022-09-11T16:10:05.817Z,2.05
2022-09-11T16:13:12.019Z,2.47
2022-09-11T16:16:19.910Z,2.55
2022-09-11T16:19:28.250Z,2.30
2022-09-11T16:22:36.169Z,2.30
2022-09-11T16:25:45.128Z,2.20
2022-09-11T16:28:53.561Z,2.35
2022-09-11T16:31:59.111Z,2.38
2022-09-11T16:35:07.224Z,2.42
2022-09-11T16:38:12.681Z,2.20
2022-09-11T16:41:25.431Z,2.20
2022-09-11T16:44:30.873Z,2.33
2022-09-11T16:47:38.925Z,2.20
2022-09-11T16:50:44.213Z,2.35
2022-09-11T16:53:52.621Z,2.22
2022-09-11T16:57:00.794Z,2.35
2022-09-11T17:00:10.098Z,2.17
2022-09-11T17:03:20.107Z,2.40
2022-09-11T17:06:30.952Z,2.13
2022-09-11T17:09:37.077Z,2.17
2022-09-11T17:12:47.479Z,2.08
2022-09-11T17:15:53.542Z,2.25
2022-09-11T17:19:04.058Z,2.05
2022-09-11T17:22:10.663Z,2.05
2022-09-11T17:25:18.725Z,2.10
2022-09-11T17:28:27.340Z,2.03
2022-09-11T17:31:35.825Z,1.67
2022-09-11T17:34:42.717Z,2.00
2022-09-11T17:37:51.036Z,2.30
2022-09-11T17:41:00.161Z,2.03
2022-09-11T17:44:10.458Z,1.90
2022-09-11T17:47:15.978Z,1.92
2022-09-11T17:50:23.881Z,1.90
2022-09-11T17:53:29.268Z,2.08
2022-09-11T17:56:36.914Z,1.85
2022-09-11T17:59:45.735Z,1.90
2022-09-11T18:02:54.367Z,2.20
2022-09-11T18:06:00.420Z,1.88
2022-09-11T18:09:12.440Z,1.95
2022-09-11T18:12:18.605Z,2.00
2022-09-11T18:15:29.012Z,1.95
2022-09-11T18:18:34.899Z,1.80
2022-09-11T18:21:45.565Z,1.98
2022-09-11T18:24:53.676Z,1.90
2022-09-11T18:28:02.714Z,1.85
2022-09-11T18:31:11.682Z,2.20
2022-09-11T18:34:21.600Z,1.90
2022-09-11T18:37:27.051Z,1.90
2022-09-11T18:40:35.357Z,1.98
2022-09-11T18:43:40.766Z,1.85
2022-09-11T18:46:51.441Z,1.80
2022-09-11T18:49:59.616Z,1.80
2022-09-11T18:53:07.830Z,2.22
2022-09-11T18:56:14.684Z,1.65
2022-09-11T18:59:23.055Z,1.73
2022-09-11T19:02:31.501Z,1.85
2022-09-11T19:05:39.330Z,1.90
2022-09-11T19:08:47.584Z,1.75
2022-09-11T19:11:55.841Z,1.83
2022-09-11T19:15:01.288Z,1.80
2022-09-11T19:18:11.640Z,1.65
2022-09-11T19:21:19.751Z,1.85
2022-09-11T19:24:28.633Z,1.83
2022-09-11T19:27:34.341Z,1.70
2022-09-11T19:30:43.882Z,2.00
2022-09-11T19:33:52.288Z,1.92
2022-09-11T19:37:00.306Z,1.80
2022-09-11T19:40:07.409Z,1.90
2022-09-11T19:43:15.107Z,1.90
2022-09-11T19:46:22.256Z,2.03
2022-09-11T19:49:33.436Z,1.85
2022-09-11T19:52:39.672Z,2.00
2022-09-11T19:55:47.838Z,1.85
2022-09-11T19:58:54.660Z,1.70
2022-09-11T20:02:02.595Z,1.67
2022-09-11T20:05:14.386Z,1.73
2022-09-11T20:08:23.207Z,1.70
2022-09-11T20:11:30.024Z,1.63
2022-09-11T20:14:42.328Z,1.90
2022-09-11T20:17:48.232Z,2.00
2022-09-11T20:21:00.337Z,1.83
2022-09-11T20:24:07.780Z,1.83
2022-09-11T20:27:15.562Z,2.13
2022-09-11T20:30:23.270Z,1.85
2022-09-11T20:33:30.899Z,1.80
2022-09-11T20:36:42.175Z,2.00
2022-09-11T20:39:49.702Z,2.00
2022-09-11T20:42:55.394Z,1.95
2022-09-11T20:49:11.033Z,2.50
2022-09-11T20:52:21.427Z,2.22
2022-09-11T20:55:27.158Z,2.05
2022-09-11T20:58:35.224Z,2.20
2022-09-11T21:01:41.615Z,2.33
2022-09-11T21:04:52.836Z,2.53
2022-09-11T21:08:01.146Z,2.33
2022-09-11T21:11:09.419Z,2.50
2022-09-11T21:14:15.749Z,2.40
2022-09-11T21:17:23.125Z,2.47
2022-09-11T21:20:28.894Z,2.17
2022-09-11T21:23:39.190Z,2.50
2022-09-11T21:26:44.973Z,2.28
2022-09-11T21:29:52.611Z,2.67
2022-09-11T21:32:58.224Z,2.40
2022-09-11T21:36:06.993Z,2.40
2022-09-11T21:39:15.477Z,2.33
2022-09-11T21:42:23.381Z,2.40
2022-09-11T21:45:28.843Z,2.22
2022-09-11T21:48:36.499Z,2.15
2022-09-11T21:51:41.941Z,2.20
2022-09-11T21:54:54.995Z,2.38
2022-09-11T21:58:01.847Z,2.05
2022-09-11T22:01:10.039Z,2.25
2022-09-11T22:04:15.945Z,2.47
2022-09-11T22:07:24.858Z,2.17
2022-09-11T22:10:33.565Z,2.47
2022-09-11T22:13:41.884Z,2.03
2022-09-11T22:16:47.295Z,2.20
2022-09-11T22:19:54.916Z,2.30
2022-09-11T22:23:00.534Z,2.05
2022-09-11T22:26:13.099Z,2.00
2022-09-11T22:29:18.547Z,2.30
2022-09-11T22:32:26.125Z,1.88
2022-09-11T22:35:32.263Z,1.85
2022-09-11T22:42:22.663Z,1.90
2022-09-11T22:45:30.163Z,1.80
2022-09-11T22:48:38.013Z,2.00
2022-09-11T22:51:48.911Z,2.00
2022-09-11T22:54:54.280Z,1.88
2022-09-11T22:58:04.810Z,2.00
2022-09-11T23:01:12.095Z,2.03
2022-09-11T23:04:20.817Z,1.92
2022-09-11T23:07:23.598Z,2.08
2022-09-11T23:10:31.347Z,1.67
2022-09-11T23:13:39.691Z,1.98
2022-09-11T23:16:47.507Z,1.83
2022-09-11T23:19:52.920Z,2.00
2022-09-11T23:23:00.391Z,1.70
2022-09-11T23:26:07.552Z,1.85
2022-09-11T23:29:17.934Z,2.07
2022-09-11T23:32:23.580Z,2.05
2022-09-11T23:35:31.171Z,1.90
2022-09-11T23:38:36.685Z,1.88
2022-09-11T23:41:44.157Z,1.83
2022-09-11T23:44:52.255Z,1.65
2022-09-11T23:47:59.892Z,1.60
2022-09-11T23:51:05.734Z,1.95
2022-09-11T23:54:13.188Z,1.63
2022-09-11T23:57:18.821Z,1.77
